createdAt,value
2018-03-31T00:01:07.354Z,58.28
2018-03-31T00:03:34.507Z,57.67
2018-03-31T00:06:01.607Z,63.35
2018-03-31T00:08:29.510Z,66.60
2018-03-31T00:13:23.495Z,59.75
2018-03-31T00:18:18.228Z,68.35
2018-03-31T00:20:45.326Z,66.95
2018-03-31T00:23:12.419Z,68.82
2018-03-31T00:25:40.279Z,62.00
2018-03-31T00:30:34.254Z,66.00
2018-03-31T00:33:01.355Z,70.35
2018-03-31T00:35:28.871Z,74.85
2018-03-31T00:37:55.974Z,64.90
2018-03-31T00:40:23.311Z,63.78
2018-03-31T00:42:51.172Z,69.65
2018-03-31T00:45:18.287Z,63.00
2018-03-31T00:47:45.395Z,59.90
2018-03-31T00:50:13.277Z,67.68
2018-03-31T00:52:41.140Z,63.70
2018-03-31T00:55:09.011Z,71.50
2018-03-31T00:57:36.135Z,67.90
2018-03-31T01:00:03.503Z,62.88
2018-03-31T01:02:30.852Z,68.85
2018-03-31T01:04:57.976Z,61.80
2018-03-31T01:07:25.074Z,60.00
2018-03-31T01:09:52.179Z,73.18
2018-03-31T01:12:19.284Z,70.25
2018-03-31T01:14:46.391Z,70.53
2018-03-31T01:17:13.505Z,61.78
2018-03-31T01:19:40.611Z,62.40
2018-03-31T01:22:07.946Z,69.68
2018-03-31T01:24:35.051Z,72.50
2018-03-31T01:27:02.550Z,68.95
2018-03-31T01:29:29.645Z,66.32
2018-03-31T01:31:56.765Z,71.05
2018-03-31T01:34:23.867Z,74.05
2018-03-31T01:36:50.986Z,63.25
2018-03-31T01:39:18.098Z,71.60
2018-03-31T01:41:45.967Z,64.37
2018-03-31T01:44:13.070Z,60.15
2018-03-31T01:46:40.185Z,63.97
2018-03-31T01:49:08.282Z,65.95
2018-03-31T01:51:35.403Z,59.03
2018-03-31T01:54:02.511Z,65.25
2018-03-31T01:56:29.663Z,60.83
2018-03-31T01:58:56.786Z,58.83
2018-03-31T02:01:23.892Z,55.05
2018-03-31T02:03:51.001Z,61.37
2018-03-31T02:06:18.103Z,65.97
2018-03-31T02:08:45.195Z,62.05
2018-03-31T02:11:13.059Z,62.78
2018-03-31T02:13:41.165Z,60.33
2018-03-31T02:16:08.269Z,62.20
2018-03-31T02:18:35.374Z,65.12
2018-03-31T02:21:02.485Z,64.87
2018-03-31T02:23:29.587Z,66.95
2018-03-31T02:25:56.720Z,70.03
2018-03-31T02:28:23.824Z,64.37
2018-03-31T02:30:51.280Z,72.35
2018-03-31T02:35:46.472Z,79.50
2018-03-31T02:38:13.802Z,82.78
2018-03-31T02:40:40.927Z,78.47
2018-03-31T02:43:08.083Z,72.05
2018-03-31T02:45:35.183Z,85.32
2018-03-31T02:48:03.052Z,77.03
2018-03-31T02:50:30.928Z,76.22
2018-03-31T02:52:58.039Z,76.30
2018-03-31T02:55:25.160Z,82.75
2018-03-31T02:57:52.262Z,77.28
2018-03-31T03:00:19.427Z,83.53
2018-03-31T03:02:47.303Z,81.85
2018-03-31T03:05:15.167Z,82.35
2018-03-31T03:07:43.031Z,85.30
2018-03-31T03:10:10.126Z,75.97
2018-03-31T03:12:37.222Z,86.25
2018-03-31T03:15:04.334Z,84.05
2018-03-31T03:17:31.659Z,86.70
2018-03-31T03:19:59.023Z,73.25
2018-03-31T03:22:26.939Z,77.32
2018-03-31T03:24:54.104Z,75.68
2018-03-31T03:27:21.779Z,79.87
2018-03-31T03:29:48.890Z,78.15
2018-03-31T03:32:16.220Z,82.28
2018-03-31T03:34:43.327Z,80.60
2018-03-31T03:37:10.444Z,76.43
2018-03-31T03:39:38.539Z,74.18
2018-03-31T03:42:05.939Z,72.28
2018-03-31T03:44:33.275Z,68.43
2018-03-31T03:47:00.375Z,78.70
2018-03-31T03:49:27.490Z,76.53
2018-03-31T03:51:54.820Z,77.80
2018-03-31T03:54:21.922Z,80.22
2018-03-31T03:56:49.027Z,87.68
2018-03-31T03:59:16.135Z,87.62
2018-03-31T04:01:43.282Z,81.80
2018-03-31T04:04:10.367Z,80.68
2018-03-31T04:06:37.475Z,87.10
2018-03-31T04:09:04.578Z,85.57
2018-03-31T04:11:32.463Z,89.18
2018-03-31T04:13:59.591Z,82.18
2018-03-31T04:16:26.752Z,83.60
2018-03-31T04:18:54.179Z,77.87
2018-03-31T04:21:21.590Z,85.38
2018-03-31T04:23:48.703Z,89.85
2018-03-31T04:26:15.811Z,86.93
2018-03-31T04:28:42.908Z,92.28
2018-03-31T04:31:10.017Z,84.33
2018-03-31T04:33:37.119Z,85.03
2018-03-31T04:36:04.214Z,97.43
2018-03-31T04:38:32.082Z,93.10
2018-03-31T04:40:59.989Z,89.15
2018-03-31T04:43:27.093Z,91.82
2018-03-31T04:45:54.966Z,80.80
2018-03-31T04:48:22.852Z,88.68
2018-03-31T04:50:50.202Z,82.40
2018-03-31T04:53:18.339Z,95.90
2018-03-31T04:55:45.439Z,83.07
2018-03-31T04:58:13.366Z,90.45
2018-03-31T05:00:40.450Z,91.12
2018-03-31T05:03:07.844Z,93.43
2018-03-31T05:05:35.210Z,91.35
2018-03-31T05:08:02.348Z,84.00
2018-03-31T05:10:29.507Z,76.75
2018-03-31T05:13:06.544Z,85.12
2018-03-31T05:15:33.643Z,86.45
2018-03-31T05:18:00.744Z,80.38
2018-03-31T05:20:27.860Z,86.20
2018-03-31T05:22:54.962Z,80.75
2018-03-31T05:25:22.068Z,85.25
2018-03-31T05:27:49.560Z,94.50
2018-03-31T05:30:16.682Z,97.97
2018-03-31T05:32:44.063Z,105.40
2018-03-31T05:35:11.172Z,114.57
2018-03-31T05:37:38.810Z,106.15
2018-03-31T05:40:06.149Z,105.55
2018-03-31T05:42:35.417Z,98.12
2018-03-31T05:45:12.447Z,104.70
2018-03-31T05:47:39.563Z,111.43
2018-03-31T05:50:06.920Z,92.10
2018-03-31T05:52:34.023Z,86.50
2018-03-31T05:55:01.131Z,88.00
2018-03-31T05:57:28.239Z,88.37
2018-03-31T05:59:55.343Z,102.15
2018-03-31T06:02:22.451Z,92.50
2018-03-31T06:05:00.260Z,90.32
2018-03-31T06:07:28.867Z,89.82
2018-03-31T06:09:55.980Z,97.03
2018-03-31T06:12:23.082Z,103.82
2018-03-31T06:14:51.459Z,96.05
2018-03-31T06:17:18.599Z,95.93
2018-03-31T06:19:45.733Z,92.50
2018-03-31T06:22:13.604Z,91.12
2018-03-31T06:24:41.482Z,88.82
2018-03-31T06:27:10.339Z,96.60
2018-03-31T06:29:37.979Z,95.72
2018-03-31T06:32:06.074Z,92.40
2018-03-31T06:34:33.170Z,95.10
2018-03-31T06:37:00.272Z,89.55
2018-03-31T06:39:28.139Z,95.80
2018-03-31T06:41:55.244Z,105.90
2018-03-31T06:44:23.406Z,100.50
2018-03-31T06:46:50.516Z,105.70
2018-03-31T06:49:17.617Z,97.47
2018-03-31T06:51:44.719Z,86.57
2018-03-31T06:54:11.827Z,98.28
2018-03-31T06:56:38.944Z,93.40
2018-03-31T06:59:06.055Z,87.07
2018-03-31T07:01:33.923Z,97.75
2018-03-31T07:04:01.023Z,90.40
2018-03-31T07:06:28.128Z,91.72
2018-03-31T07:08:55.991Z,86.28
2018-03-31T07:11:23.899Z,82.68
2018-03-31T07:13:50.999Z,87.15
2018-03-31T07:16:18.098Z,91.87
2018-03-31T07:18:45.194Z,88.85
2018-03-31T07:21:13.821Z,89.55
2018-03-31T07:23:40.918Z,84.25
2018-03-31T07:26:08.006Z,82.10
2018-03-31T07:28:35.107Z,87.05
2018-03-31T07:31:02.203Z,96.20
2018-03-31T07:33:29.300Z,83.40
2018-03-31T07:35:57.163Z,87.22
2018-03-31T07:38:25.074Z,93.32
2018-03-31T07:40:52.176Z,82.90
2018-03-31T07:43:19.315Z,92.90
2018-03-31T07:45:46.429Z,87.88
2018-03-31T07:48:13.528Z,93.80
2018-03-31T07:50:40.665Z,85.15
2018-03-31T07:53:07.755Z,81.37
2018-03-31T07:55:34.859Z,83.93
2018-03-31T07:58:02.006Z,96.97
2018-03-31T08:00:29.112Z,77.55
2018-03-31T08:02:56.232Z,80.43
2018-03-31T08:05:23.332Z,87.53
2018-03-31T08:07:51.206Z,86.90
2018-03-31T08:10:18.309Z,96.40
2018-03-31T08:12:45.414Z,82.90
2018-03-31T08:15:13.288Z,83.62
2018-03-31T08:17:40.386Z,88.93
2018-03-31T08:20:07.493Z,90.47
2018-03-31T08:22:34.603Z,79.28
2018-03-31T08:25:01.713Z,78.25
2018-03-31T08:27:28.815Z,85.03
2018-03-31T08:29:55.946Z,90.97
2018-03-31T08:32:23.039Z,90.10
2018-03-31T08:34:50.140Z,88.72
2018-03-31T08:37:17.242Z,86.18
2018-03-31T08:39:44.356Z,93.87
2018-03-31T08:42:11.468Z,87.75
2018-03-31T08:44:38.603Z,86.55
2018-03-31T08:47:05.709Z,82.78
2018-03-31T08:49:32.867Z,91.47
2018-03-31T08:51:59.958Z,81.25
2018-03-31T08:54:27.111Z,79.70
2018-03-31T08:56:54.228Z,85.95
2018-03-31T08:59:21.324Z,89.15
2018-03-31T09:01:48.433Z,82.20
2018-03-31T09:04:15.531Z,88.07
2018-03-31T09:06:42.640Z,81.60
2018-03-31T09:09:09.809Z,84.15
2018-03-31T09:11:36.917Z,93.22
2018-03-31T09:14:04.011Z,90.47
2018-03-31T09:16:31.115Z,85.87
2018-03-31T09:18:58.220Z,88.45
2018-03-31T09:21:25.370Z,89.45
2018-03-31T09:23:52.454Z,86.87
2018-03-31T09:26:19.558Z,89.15
2018-03-31T09:28:46.687Z,87.28
2018-03-31T09:31:14.551Z,79.25
2018-03-31T09:33:41.651Z,75.37
2018-03-31T09:36:09.219Z,85.75
2018-03-31T09:38:36.364Z,81.85
2018-03-31T09:41:03.459Z,86.22
2018-03-31T09:43:30.565Z,89.57
2018-03-31T09:45:57.666Z,86.25
2018-03-31T09:48:24.780Z,87.22
2018-03-31T09:50:51.891Z,82.62
2018-03-31T09:53:18.991Z,81.28
2018-03-31T09:55:46.107Z,76.45
2018-03-31T09:58:13.977Z,79.85
2018-03-31T10:00:41.898Z,73.57
2018-03-31T10:03:08.995Z,77.22
2018-03-31T10:05:36.104Z,76.50
2018-03-31T10:08:03.196Z,75.45
2018-03-31T10:10:30.344Z,89.15
2018-03-31T10:12:58.370Z,79.68
2018-03-31T10:15:25.488Z,90.43
2018-03-31T10:17:52.786Z,86.28
2018-03-31T10:20:20.691Z,88.32
2018-03-31T10:22:47.787Z,87.15
2018-03-31T10:25:16.554Z,89.07
2018-03-31T10:27:43.732Z,91.75
2018-03-31T10:30:11.602Z,94.68
2018-03-31T10:32:39.531Z,97.47
2018-03-31T10:35:06.632Z,91.10
2018-03-31T10:37:34.526Z,90.93
2018-03-31T10:40:01.620Z,95.45
2018-03-31T10:42:28.723Z,96.60
2018-03-31T10:44:55.827Z,107.65
2018-03-31T10:47:23.018Z,137.55
2018-03-31T10:49:50.079Z,109.93
2018-03-31T10:52:17.947Z,103.57
2018-03-31T10:54:45.813Z,113.18
2018-03-31T10:57:13.682Z,107.00
2018-03-31T10:59:41.550Z,102.00
2018-03-31T11:02:09.409Z,95.50
2018-03-31T11:04:36.511Z,100.38
2018-03-31T11:07:03.623Z,108.93
2018-03-31T11:09:31.499Z,114.22
2018-03-31T11:11:59.366Z,89.37
2018-03-31T11:14:27.234Z,93.68
2018-03-31T11:16:54.363Z,98.37
2018-03-31T11:21:48.372Z,89.10
2018-03-31T11:24:15.487Z,83.47
2018-03-31T11:26:42.598Z,93.12
2018-03-31T11:29:10.491Z,91.32
2018-03-31T11:31:38.364Z,94.50
2018-03-31T11:34:06.245Z,89.93
2018-03-31T11:36:33.347Z,95.70
2018-03-31T11:39:00.451Z,88.57
2018-03-31T11:41:27.916Z,98.05
2018-03-31T11:43:55.018Z,94.90
2018-03-31T11:46:22.175Z,94.70
2018-03-31T11:51:16.234Z,91.50
2018-03-31T11:53:43.351Z,102.20
2018-03-31T11:56:10.461Z,97.97
2018-03-31T11:58:37.609Z,101.80
2018-03-31T12:32:56.647Z,100.20
2018-03-31T12:35:23.743Z,85.30
2018-03-31T12:37:50.845Z,95.57
2018-03-31T12:40:18.022Z,93.40
2018-03-31T13:07:16.459Z,90.80
2018-03-31T13:12:10.475Z,94.85
2018-03-31T13:14:38.363Z,148.50
2018-03-31T13:17:05.481Z,129.98
2018-03-31T13:19:32.589Z,107.60
2018-03-31T13:21:59.716Z,99.43
2018-03-31T13:24:27.592Z,152.73
2018-03-31T13:26:54.707Z,124.25
2018-03-31T13:29:21.828Z,97.10
2018-03-31T13:31:48.936Z,113.12
2018-03-31T13:34:16.808Z,105.32
2018-03-31T13:36:44.708Z,97.40
2018-03-31T13:39:11.824Z,106.10
2018-03-31T13:41:38.924Z,110.35
2018-03-31T13:44:06.040Z,111.05
2018-03-31T13:46:33.174Z,108.65
2018-03-31T13:49:00.315Z,112.25
2018-03-31T13:51:28.184Z,118.03
2018-03-31T13:53:56.109Z,109.78
2018-03-31T13:56:23.979Z,117.95
2018-03-31T13:58:51.864Z,114.10
2018-03-31T14:01:18.964Z,103.78
2018-03-31T14:03:46.066Z,109.45
2018-03-31T14:06:13.168Z,115.47
2018-03-31T14:08:40.272Z,114.68
2018-03-31T14:11:07.398Z,109.85
2018-03-31T14:13:34.559Z,110.90
2018-03-31T14:16:01.687Z,103.55
2018-03-31T14:18:28.795Z,101.15
2018-03-31T14:20:55.903Z,101.72
2018-03-31T14:23:23.007Z,102.97
2018-03-31T14:25:50.193Z,103.20
2018-03-31T14:28:17.300Z,115.60
2018-03-31T14:30:45.167Z,104.87
2018-03-31T14:33:13.031Z,97.50
2018-03-31T14:35:41.040Z,106.25
2018-03-31T14:38:08.164Z,115.28
2018-03-31T14:40:36.032Z,112.70
2018-03-31T14:43:03.902Z,105.95
2018-03-31T14:45:30.998Z,110.45
2018-03-31T14:47:58.101Z,116.70
2018-03-31T14:50:25.210Z,115.32
2018-03-31T14:52:52.352Z,105.00
2018-03-31T14:55:19.463Z,115.22
2018-03-31T14:57:46.564Z,110.05
2018-03-31T15:00:13.699Z,106.43
2018-03-31T15:02:40.818Z,100.15
2018-03-31T15:05:07.924Z,91.47
2018-03-31T15:07:35.024Z,90.43
2018-03-31T15:10:02.124Z,83.78
2018-03-31T15:12:29.228Z,87.78
2018-03-31T15:14:56.337Z,90.85
2018-03-31T15:17:23.491Z,88.00
2018-03-31T15:19:50.619Z,85.53
2018-03-31T15:22:18.488Z,87.10
2018-03-31T15:24:46.350Z,70.75
2018-03-31T15:27:14.214Z,74.62
2018-03-31T15:29:41.327Z,70.62
2018-03-31T15:32:08.428Z,67.90
2018-03-31T15:34:36.290Z,65.37
2018-03-31T15:37:03.431Z,76.97
2018-03-31T15:39:30.532Z,72.50
2018-03-31T15:41:57.635Z,81.65
2018-03-31T15:44:24.745Z,69.10
2018-03-31T15:46:51.846Z,73.78
2018-03-31T15:49:18.951Z,84.00
2018-03-31T15:51:46.056Z,78.65
2018-03-31T15:54:13.164Z,73.07
2018-03-31T15:56:40.273Z,58.30
2018-03-31T15:59:07.376Z,61.88
2018-03-31T16:01:35.795Z,64.25
2018-03-31T16:04:02.909Z,64.28
2018-03-31T16:06:30.027Z,68.37
2018-03-31T16:08:57.964Z,61.15
2018-03-31T16:11:25.043Z,69.40
2018-03-31T16:13:52.224Z,68.93
2018-03-31T16:16:20.118Z,66.07
2018-03-31T16:18:47.224Z,73.32
2018-03-31T16:21:14.328Z,70.15
2018-03-31T16:23:41.461Z,91.97
2018-03-31T16:26:08.639Z,83.47
2018-03-31T16:28:36.495Z,76.25
2018-03-31T16:31:03.620Z,82.37
2018-03-31T16:33:30.720Z,74.90
2018-03-31T16:35:57.826Z,77.12
2018-03-31T16:38:24.941Z,74.22
2018-03-31T16:40:52.035Z,76.05
2018-03-31T16:43:19.170Z,67.05
2018-03-31T16:45:46.266Z,70.35
2018-03-31T16:48:13.370Z,76.60
2018-03-31T16:50:40.477Z,76.10
2018-03-31T16:53:07.598Z,74.68
2018-03-31T16:55:34.694Z,67.95
2018-03-31T16:58:01.795Z,65.57
2018-03-31T17:00:28.903Z,60.22
2018-03-31T17:02:56.768Z,55.90
2018-03-31T17:05:23.859Z,52.42
2018-03-31T17:07:50.960Z,49.20
2018-03-31T17:10:18.058Z,44.50
2018-03-31T17:12:45.159Z,50.35
2018-03-31T17:15:13.096Z,59.70
2018-03-31T17:17:40.194Z,61.95
2018-03-31T17:20:08.059Z,74.87
2018-03-31T17:22:35.922Z,80.05
2018-03-31T17:25:03.025Z,83.45
2018-03-31T17:27:30.128Z,75.00
2018-03-31T17:29:57.230Z,76.82
2018-03-31T17:32:24.375Z,73.80
2018-03-31T17:34:51.487Z,75.25
2018-03-31T17:37:18.587Z,76.65
2018-03-31T17:39:46.454Z,95.68
2018-03-31T17:42:13.575Z,85.07
2018-03-31T17:44:41.439Z,99.45
2018-03-31T17:47:08.530Z,90.75
2018-03-31T17:49:35.636Z,93.30
2018-03-31T17:52:02.742Z,103.75
2018-03-31T17:54:29.842Z,115.72
2018-03-31T17:56:56.943Z,114.30
2018-03-31T17:59:24.046Z,116.40
2018-03-31T18:01:51.156Z,142.45
2018-03-31T18:04:18.265Z,122.78
2018-03-31T18:06:45.431Z,113.45
2018-03-31T18:09:13.302Z,130.93
2018-03-31T18:11:41.172Z,133.32
2018-03-31T18:14:08.275Z,128.73
2018-03-31T18:16:35.376Z,128.77
2018-03-31T18:19:02.478Z,125.38
2018-03-31T18:21:29.584Z,134.25
2018-03-31T18:23:56.695Z,131.15
2018-03-31T18:26:23.799Z,143.87
2018-03-31T18:28:50.903Z,128.12
2018-03-31T18:31:17.999Z,130.15
2018-03-31T18:33:45.907Z,146.30
2018-03-31T18:36:13.017Z,142.50
2018-03-31T18:38:40.128Z,151.30
2018-03-31T18:41:07.261Z,156.82
2018-03-31T18:43:34.391Z,141.45
2018-03-31T18:46:02.255Z,149.73
2018-03-31T18:48:29.355Z,148.70
2018-03-31T18:50:56.459Z,161.82
2018-03-31T18:53:23.563Z,166.15
2018-03-31T18:55:50.722Z,151.57
2018-03-31T18:58:17.834Z,145.95
2018-03-31T19:00:44.944Z,138.52
2018-03-31T19:03:12.070Z,149.00
2018-03-31T19:05:39.190Z,118.30
2018-03-31T19:08:06.314Z,122.60
2018-03-31T19:10:33.702Z,120.62
2018-03-31T19:13:00.806Z,124.05
2018-03-31T19:15:27.908Z,125.70
2018-03-31T19:17:55.020Z,120.03
2018-03-31T19:20:22.164Z,110.30
2018-03-31T19:22:49.275Z,134.43
2018-03-31T19:25:21.887Z,144.85
2018-03-31T19:27:49.004Z,134.45
2018-03-31T19:30:16.108Z,110.60
2018-03-31T19:32:43.223Z,115.50
2018-03-31T19:35:11.096Z,100.32
2018-03-31T19:37:39.031Z,99.55
2018-03-31T19:40:06.142Z,103.38
2018-03-31T19:42:33.255Z,98.87
2018-03-31T19:45:00.382Z,94.35
2018-03-31T19:47:27.503Z,97.80
2018-03-31T19:49:54.610Z,110.47
2018-03-31T19:52:21.715Z,120.62
2018-03-31T19:54:48.883Z,111.00
2018-03-31T19:57:16.719Z,104.57
2018-03-31T19:59:44.607Z,111.30
2018-03-31T20:02:11.702Z,106.40
2018-03-31T20:04:38.804Z,113.43
2018-03-31T20:07:05.923Z,103.50
2018-03-31T20:09:33.046Z,105.57
2018-03-31T20:12:00.147Z,95.45
2018-03-31T20:14:28.073Z,92.00
2018-03-31T20:16:55.946Z,91.63
2018-03-31T20:19:23.048Z,98.18
2018-03-31T20:21:50.946Z,91.75
2018-03-31T20:24:18.098Z,101.45
2018-03-31T20:26:45.504Z,99.78
2018-03-31T20:29:12.611Z,93.40
2018-03-31T20:31:39.739Z,91.70
2018-03-31T20:34:07.610Z,83.87
2018-03-31T20:36:34.723Z,95.55
2018-03-31T20:39:02.054Z,91.65
2018-03-31T20:41:29.155Z,93.05
2018-03-31T20:43:56.254Z,96.05
2018-03-31T20:46:23.366Z,95.87
2018-03-31T20:48:50.467Z,89.13
2018-03-31T20:51:17.611Z,99.70
2018-03-31T20:53:44.718Z,90.57
2018-03-31T20:56:11.816Z,94.87
2018-03-31T20:58:38.927Z,75.53
2018-03-31T21:01:06.028Z,77.10
2018-03-31T21:03:33.899Z,78.60
2018-03-31T21:06:01.767Z,69.95
2018-03-31T21:08:28.868Z,71.80
2018-03-31T21:10:56.753Z,77.80
2018-03-31T21:13:23.899Z,70.05
2018-03-31T21:15:51.007Z,74.37
2018-03-31T21:18:18.109Z,76.18
2018-03-31T21:20:45.268Z,69.32
2018-03-31T21:23:12.373Z,65.50
2018-03-31T21:25:39.471Z,72.25
2018-03-31T21:28:06.574Z,58.85
2018-03-31T21:30:33.687Z,62.97
2018-03-31T21:33:00.783Z,62.60
2018-03-31T21:35:27.887Z,63.92
2018-03-31T21:37:54.989Z,63.15
2018-03-31T21:40:22.088Z,64.95
2018-03-31T21:42:49.231Z,57.53
2018-03-31T21:45:16.345Z,62.90
2018-03-31T21:47:44.200Z,59.10
2018-03-31T21:50:11.300Z,61.20
2018-03-31T21:52:38.419Z,70.15
2018-03-31T21:55:05.519Z,70.68
2018-03-31T21:57:32.637Z,71.65
2018-03-31T21:59:59.739Z,72.50
2018-03-31T22:02:26.846Z,69.35
2018-03-31T22:04:53.946Z,69.40
2018-03-31T22:07:21.044Z,64.00
2018-03-31T22:14:48.350Z,60.60
2018-03-31T22:17:15.451Z,72.85
2018-03-31T22:19:42.552Z,63.25
2018-03-31T22:22:09.643Z,61.45
2018-03-31T22:24:36.742Z,67.57
2018-03-31T22:27:03.862Z,66.10
2018-03-31T22:29:30.954Z,67.68
2018-03-31T22:31:58.055Z,71.20
2018-03-31T22:34:25.159Z,65.10
2018-03-31T22:36:53.046Z,68.65
2018-03-31T22:39:20.908Z,67.72
2018-03-31T22:41:48.011Z,68.25
2018-03-31T22:44:15.099Z,79.82
2018-03-31T22:46:42.210Z,72.40
2018-03-31T22:49:09.307Z,62.17
2018-03-31T22:51:36.428Z,55.92
2018-03-31T22:54:03.532Z,51.67
2018-03-31T22:56:31.386Z,60.72
2018-03-31T22:58:58.485Z,62.10
2018-03-31T23:01:25.578Z,61.25
2018-03-31T23:03:52.690Z,53.80
2018-03-31T23:06:19.781Z,54.63
2018-03-31T23:08:46.883Z,52.45
2018-03-31T23:11:13.985Z,60.63
2018-03-31T23:13:41.088Z,61.88
2018-03-31T23:16:08.951Z,58.80
2018-03-31T23:18:36.823Z,65.28
2018-03-31T23:21:04.683Z,66.65
2018-03-31T23:23:32.615Z,63.65
2018-03-31T23:25:59.716Z,60.45
2018-03-31T23:28:26.816Z,58.17
2018-03-31T23:30:53.915Z,63.50
2018-03-31T23:33:21.780Z,63.42
2018-03-31T23:35:48.895Z,61.15
2018-03-31T23:38:15.986Z,63.00
2018-03-31T23:40:43.089Z,65.00
2018-03-31T23:43:10.182Z,55.95
2018-03-31T23:45:37.281Z,60.55
2018-03-31T23:48:04.392Z,60.88
2018-03-31T23:50:32.284Z,67.80
2018-03-31T23:52:59.388Z,61.35
2018-03-31T23:55:26.493Z,57.72
2018-03-31T23:57:54.359Z,57.50
